Time;durP1;ratioP1;P1;durP2;ratioP2;P2;SDS_P1;SDS_P2;PMS_P1;PMS_P2;Temp;Humidity;BMP_temperature;BMP_pressure;BME280_temperature;BME280_humidity;BME280_pressure;Samples;Min_cycle;Max_cycle;Signal;HPM_P1;HPM_P2
2023/05/15 00:00:09;;;;;;;17.48;8.05;;;16.50;99.90;;;;;;4954638;29;20049;-79
2023/05/15 00:02:38;;;;;;;13.60;7.63;;;16.50;99.90;;;;;;4955173;29;20028;-78
2023/05/15 00:05:07;;;;;;;16.08;8.70;;;16.50;99.90;;;;;;4954976;29;20118;-77
2023/05/15 00:07:33;;;;;;;17.95;8.68;;;16.50;99.90;;;;;;4954977;29;20029;-76
2023/05/15 00:09:59;;;;;;;19.77;8.48;;;16.50;99.90;;;;;;4954558;29;20039;-79
2023/05/15 00:12:25;;;;;;;15.98;7.70;;;16.50;99.90;;;;;;4937102;29;20027;-75
2023/05/15 00:14:51;;;;;;;16.67;6.75;;;16.50;99.90;;;;;;4954557;29;20043;-75
2023/05/15 00:17:17;;;;;;;15.35;7.75;;;16.50;99.90;;;;;;4954528;29;20046;-79
2023/05/15 00:19:43;;;;;;;14.68;6.57;;;16.50;99.90;;;;;;4954219;29;20035;-77
2023/05/15 00:22:09;;;;;;;14.52;7.10;;;16.50;99.90;;;;;;4954469;29;20027;-74
2023/05/15 00:24:35;;;;;;;16.70;8.00;;;16.50;99.90;;;;;;4937251;29;20042;-78
2023/05/15 00:27:00;;;;;;;13.65;6.68;;;16.50;99.90;;;;;;4954427;29;20035;-75
2023/05/15 00:29:27;;;;;;;17.95;7.15;;;16.50;99.90;;;;;;4936789;29;20122;-76
2023/05/15 00:31:52;;;;;;;14.85;6.22;;;16.50;99.90;;;;;;4937252;29;20479;-78
2023/05/15 00:34:18;;;;;;;14.73;7.25;;;16.50;99.90;;;;;;4936443;29;20046;-77
2023/05/15 00:36:44;;;;;;;14.88;7.32;;;16.50;99.90;;;;;;4954502;29;20023;-78
2023/05/15 00:39:10;;;;;;;16.23;7.10;;;16.50;99.90;;;;;;4936844;29;20038;-77
2023/05/15 00:41:37;;;;;;;14.75;7.32;;;16.50;99.90;;;;;;4936476;29;20844;-74
2023/05/15 00:44:05;;;;;;;10.45;6.53;;;16.50;99.90;;;;;;4954246;29;20170;-75
2023/05/15 00:46:33;;;;;;;12.15;6.30;;;16.50;99.90;;;;;;4937059;29;20019;-76
2023/05/15 00:49:03;;;;;;;16.10;7.55;;;16.50;99.90;;;;;;4936932;29;20023;-75
2023/05/15 00:51:29;;;;;;;13.95;6.30;;;16.40;99.90;;;;;;4954074;29;20125;-76
2023/05/15 00:53:56;;;;;;;18.23;7.45;;;16.40;99.90;;;;;;4954108;29;20089;-76
2023/05/15 00:56:23;;;;;;;11.68;6.45;;;16.50;99.90;;;;;;4926699;29;20125;-77
2023/05/15 00:58:52;;;;;;;14.48;6.50;;;16.50;99.90;;;;;;4951282;29;20530;-76
2023/05/15 01:01:18;;;;;;;10.90;7.18;;;16.50;99.90;;;;;;4946533;29;20020;-76
2023/05/15 01:03:45;;;;;;;17.67;7.50;;;16.50;99.90;;;;;;4920054;29;20080;-75
2023/05/15 01:06:11;;;;;;;13.45;6.85;;;16.60;99.90;;;;;;4920022;29;20062;-76
2023/05/15 01:08:45;;;;;;;14.43;7.90;;;16.60;99.90;;;;;;4936701;29;20031;-75
2023/05/15 01:11:12;;;;;;;14.20;6.50;;;16.60;99.90;;;;;;4931310;29;20024;-75
2023/05/15 01:13:38;;;;;;;13.23;7.28;;;16.60;99.90;;;;;;4933203;29;20080;-76
2023/05/15 01:16:06;;;;;;;14.32;7.15;;;16.50;99.90;;;;;;4918238;29;20041;-74
2023/05/15 01:18:32;;;;;;;19.15;8.88;;;16.40;99.90;;;;;;4951265;29;20019;-76
2023/05/15 01:21:10;;;;;;;14.07;7.28;;;16.30;99.90;;;;;;4938248;29;20032;-77
2023/05/15 01:23:48;;;;;;;13.68;8.13;;;16.30;99.90;;;;;;4924633;29;20031;-76
2023/05/15 01:26:23;;;;;;;13.82;8.23;;;16.20;99.90;;;;;;4933405;29;20067;-75
2023/05/15 01:29:04;;;;;;;14.27;8.82;;;16.10;99.90;;;;;;4922527;29;20102;-75
2023/05/15 01:31:31;;;;;;;18.10;10.38;;;16.10;99.90;;;;;;4940845;29;20348;-76
2023/05/15 01:34:02;;;;;;;14.77;9.82;;;16.00;99.90;;;;;;4936383;29;20046;-77
2023/05/15 01:36:45;;;;;;;19.27;11.57;;;16.00;99.90;;;;;;4927884;29;20058;-76
2023/05/15 01:39:12;;;;;;;21.17;13.60;;;16.00;99.90;;;;;;4934094;29;20078;-75
2023/05/15 01:41:45;;;;;;;21.60;15.00;;;16.00;99.90;;;;;;4934466;29;20059;-73
2023/05/15 01:44:21;;;;;;;19.90;13.95;;;15.90;99.90;;;;;;4933612;29;20038;-76
2023/05/15 01:46:53;;;;;;;20.35;12.32;;;15.80;99.90;;;;;;4934165;29;20391;-74
2023/05/15 01:49:23;;;;;;;21.27;12.27;;;15.70;99.90;;;;;;4955364;29;20106;-75
2023/05/15 01:51:54;;;;;;;18.85;10.95;;;15.60;99.90;;;;;;4939795;29;20277;-74
2023/05/15 01:54:22;;;;;;;15.73;9.40;;;15.60;99.90;;;;;;4944834;29;20046;-75
2023/05/15 01:56:48;;;;;;;20.85;9.82;;;15.60;99.90;;;;;;4928889;29;20365;-76
2023/05/15 01:59:15;;;;;;;14.13;8.40;;;15.60;99.90;;;;;;4929809;29;20036;-75
2023/05/15 02:01:42;;;;;;;13.93;8.43;;;15.50;99.90;;;;;;4930377;29;20023;-76
2023/05/15 02:04:10;;;;;;;14.30;7.97;;;15.50;99.90;;;;;;4944752;29;20045;-76
2023/05/15 02:06:36;;;;;;;11.88;7.00;;;15.50;99.90;;;;;;4957094;29;20020;-76
2023/05/15 02:09:03;;;;;;;11.70;5.28;;;15.40;99.90;;;;;;4957062;29;20487;-75
2023/05/15 02:11:29;;;;;;;7.13;4.30;;;15.40;99.90;;;;;;4956715;29;20028;-76
2023/05/15 02:13:56;;;;;;;7.13;4.25;;;15.30;99.90;;;;;;4931810;29;20047;-76
2023/05/15 02:16:22;;;;;;;8.48;4.43;;;15.30;99.90;;;;;;4934760;29;20030;-76
2023/05/15 02:18:48;;;;;;;8.02;4.63;;;15.30;99.90;;;;;;4956780;29;20031;-76
2023/05/15 02:21:15;;;;;;;9.00;4.53;;;15.20;99.90;;;;;;4938683;29;20127;-75
2023/05/15 02:23:41;;;;;;;8.30;4.97;;;15.20;99.90;;;;;;4939822;29;20035;-75
2023/05/15 02:26:34;;;;;;;7.93;4.07;;;15.20;99.90;;;;;;4939255;29;20038;-75
2023/05/15 02:29:09;;;;;;;8.50;4.60;;;15.10;99.90;;;;;;4910300;29;20495;-77
2023/05/15 02:31:44;;;;;;;8.18;5.18;;;15.10;99.90;;;;;;4935930;29;20032;-76
2023/05/15 02:34:35;;;;;;;9.25;4.95;;;15.10;99.90;;;;;;4934050;29;20039;-77
2023/05/15 02:37:03;;;;;;;8.32;4.97;;;15.00;99.90;;;;;;4956451;29;20446;-75
2023/05/15 02:39:32;;;;;;;7.38;4.65;;;15.00;99.90;;;;;;4923244;29;20067;-75
2023/05/15 02:41:59;;;;;;;9.45;4.63;;;15.00;99.90;;;;;;4955987;29;20186;-76
2023/05/15 02:44:25;;;;;;;7.90;4.85;;;15.10;99.90;;;;;;4949691;29;20051;-76
2023/05/15 02:46:52;;;;;;;8.00;4.47;;;15.10;99.90;;;;;;4949989;29;20082;-76
2023/05/15 02:49:18;;;;;;;8.02;5.03;;;15.10;99.90;;;;;;4955778;29;20038;-77
2023/05/15 02:51:45;;;;;;;7.70;4.88;;;15.10;99.90;;;;;;4938761;29;20030;-76
2023/05/15 02:54:11;;;;;;;9.55;4.50;;;15.10;99.90;;;;;;4938312;29;20043;-75
2023/05/15 02:56:37;;;;;;;9.30;4.85;;;15.10;99.90;;;;;;4955955;28;20028;-76
2023/05/15 02:59:03;;;;;;;7.57;5.03;;;15.10;99.90;;;;;;4922090;29;20043;-76
2023/05/15 03:01:29;;;;;;;7.28;4.47;;;15.10;99.90;;;;;;4956293;29;20387;-77
2023/05/15 03:03:54;;;;;;;5.93;4.43;;;15.10;99.90;;;;;;4955771;29;20019;-76
2023/05/15 03:06:20;;;;;;;9.90;4.97;;;15.10;99.90;;;;;;4956008;29;20505;-76
2023/05/15 03:08:46;;;;;;;8.15;4.68;;;15.10;99.90;;;;;;4938477;29;20050;-74
2023/05/15 03:11:12;;;;;;;7.90;4.15;;;15.10;99.90;;;;;;4938533;29;20066;-74
2023/05/15 03:13:38;;;;;;;7.07;4.38;;;15.00;99.90;;;;;;4955244;29;20109;-76
2023/05/15 03:16:04;;;;;;;7.43;4.45;;;15.00;99.90;;;;;;4955912;29;20498;-77
2023/05/15 03:18:30;;;;;;;8.35;4.32;;;15.00;99.90;;;;;;4955498;29;20023;-76
2023/05/15 03:20:56;;;;;;;7.07;3.83;;;15.00;99.90;;;;;;4955892;29;20019;-76
2023/05/15 03:23:22;;;;;;;6.13;3.55;;;14.90;99.90;;;;;;4955441;29;20451;-75
2023/05/15 03:25:48;;;;;;;6.68;3.72;;;14.90;99.90;;;;;;4923067;29;20036;-77
2023/05/15 03:28:14;;;;;;;6.70;3.22;;;14.90;99.90;;;;;;4954603;29;20384;-76
2023/05/15 03:30:43;;;;;;;4.38;3.30;;;14.90;99.90;;;;;;4955441;29;20024;-76
2023/05/15 03:33:09;;;;;;;4.70;2.90;;;14.90;99.90;;;;;;4930931;29;20036;-74
2023/05/15 03:35:35;;;;;;;4.10;2.72;;;14.90;99.90;;;;;;4949052;29;20039;-77
2023/05/15 03:38:01;;;;;;;5.40;2.97;;;14.90;99.90;;;;;;4955521;29;20032;-76
2023/05/15 03:40:27;;;;;;;3.65;2.25;;;14.90;99.90;;;;;;4954869;29;20035;-74
2023/05/15 03:42:53;;;;;;;5.35;2.50;;;14.90;99.90;;;;;;4924357;29;20042;-77
2023/05/15 03:45:19;;;;;;;3.42;2.17;;;14.90;99.90;;;;;;4942800;29;20027;-76
2023/05/15 03:47:47;;;;;;;2.22;1.90;;;14.90;99.90;;;;;;4947445;29;20034;-77
2023/05/15 03:50:13;;;;;;;3.40;2.30;;;14.90;99.90;;;;;;4937584;29;20051;-77
2023/05/15 03:52:39;;;;;;;3.25;1.92;;;14.90;99.90;;;;;;4925280;29;20095;-76
2023/05/15 03:55:05;;;;;;;3.53;1.73;;;14.90;99.90;;;;;;4954965;29;20093;-77
2023/05/15 03:57:32;;;;;;;2.90;1.90;;;14.90;99.90;;;;;;4954065;29;20059;-77
2023/05/15 03:59:58;;;;;;;2.88;1.70;;;14.90;99.90;;;;;;4937061;29;20039;-74
2023/05/15 04:02:23;;;;;;;3.90;2.10;;;15.00;99.90;;;;;;4954435;29;20023;-78
2023/05/15 04:04:50;;;;;;;3.05;2.08;;;15.00;99.90;;;;;;4954996;29;20041;-78
2023/05/15 04:07:17;;;;;;;3.88;2.15;;;15.00;99.90;;;;;;4943635;29;20111;-77
2023/05/15 04:09:42;;;;;;;7.03;2.50;;;15.00;99.90;;;;;;4953726;28;20039;-76
2023/05/15 04:12:08;;;;;;;3.17;1.85;;;15.00;99.90;;;;;;4954352;29;20027;-75
2023/05/15 04:14:34;;;;;;;4.45;2.35;;;15.10;99.90;;;;;;4935822;29;20130;-76
2023/05/15 04:17:00;;;;;;;12.25;3.13;;;15.10;99.90;;;;;;4953565;29;20033;-76
2023/05/15 04:19:26;;;;;;;4.05;2.65;;;15.20;99.90;;;;;;4953522;29;20027;-77
2023/05/15 04:21:51;;;;;;;2.88;2.10;;;15.20;99.90;;;;;;4954488;29;20023;-77
2023/05/15 04:24:17;;;;;;;3.03;2.50;;;15.20;99.90;;;;;;4956742;28;20038;-74
2023/05/15 04:26:43;;;;;;;2.58;2.10;;;15.40;99.90;;;;;;4954376;29;20035;-76
2023/05/15 04:29:09;;;;;;;3.03;1.48;;;15.50;99.90;;;;;;4953405;29;20031;-77
2023/05/15 04:31:35;;;;;;;4.35;1.73;;;15.50;99.90;;;;;;4954350;29;20030;-75
2023/05/15 04:34:00;;;;;;;2.92;1.67;;;15.50;99.90;;;;;;4953642;29;20035;-77
2023/05/15 04:36:27;;;;;;;2.13;1.42;;;15.60;99.90;;;;;;4936574;29;20114;-76
2023/05/15 04:38:52;;;;;;;3.17;1.60;;;15.50;99.90;;;;;;4936536;29;20070;-75
2023/05/15 04:41:18;;;;;;;3.42;1.80;;;15.50;99.90;;;;;;4954173;29;20089;-77
2023/05/15 04:43:44;;;;;;;3.05;1.50;;;15.50;99.90;;;;;;4953643;29;20019;-77
2023/05/15 04:46:10;;;;;;;5.68;1.60;;;15.60;99.90;;;;;;4954089;29;20031;-77
2023/05/15 04:48:36;;;;;;;3.83;2.00;;;15.60;99.90;;;;;;4953614;29;20119;-76
2023/05/15 04:51:02;;;;;;;3.97;1.80;;;15.50;99.90;;;;;;4953682;29;20031;-75
2023/05/15 04:53:27;;;;;;;2.90;1.23;;;15.60;99.90;;;;;;4952942;29;20042;-75
2023/05/15 04:55:53;;;;;;;6.18;1.90;;;15.60;99.90;;;;;;4953713;29;20043;-76
2023/05/15 04:58:19;;;;;;;3.35;1.92;;;15.60;99.90;;;;;;4954134;29;20027;-74
2023/05/15 05:00:45;;;;;;;7.05;3.05;;;15.60;99.90;;;;;;4953400;29;20106;-75
2023/05/15 05:03:11;;;;;;;3.25;1.50;;;15.60;99.90;;;;;;4953978;29;20361;-74
2023/05/15 05:05:36;;;;;;;3.22;1.60;;;15.70;99.90;;;;;;4941092;29;20023;-74
2023/05/15 05:08:02;;;;;;;3.40;1.60;;;15.70;99.90;;;;;;4936154;29;20050;-77
2023/05/15 05:10:28;;;;;;;1.50;1.15;;;15.80;99.90;;;;;;4936559;29;20038;-74
2023/05/15 05:12:54;;;;;;;1.67;1.00;;;15.80;99.90;;;;;;4953576;29;20027;-73
2023/05/15 05:15:20;;;;;;;1.58;0.98;;;15.90;99.90;;;;;;4939877;29;20074;-76
2023/05/15 05:17:45;;;;;;;2.63;1.00;;;16.10;99.90;;;;;;4945424;29;20036;-76
2023/05/15 05:20:12;;;;;;;2.42;0.80;;;16.10;99.90;;;;;;4936289;29;20036;-75
2023/05/15 05:22:39;;;;;;;3.25;1.20;;;16.10;99.90;;;;;;4956706;29;20023;-75
2023/05/15 05:25:06;;;;;;;2.45;1.67;;;16.00;99.90;;;;;;4957690;29;20074;-74
2023/05/15 05:27:32;;;;;;;2.78;1.40;;;16.00;99.90;;;;;;4957418;29;20102;-77
2023/05/15 05:29:58;;;;;;;4.05;1.90;;;16.10;99.90;;;;;;4957541;29;20559;-76
2023/05/15 05:32:23;;;;;;;1.58;1.10;;;16.10;99.90;;;;;;4957533;29;20371;-73
2023/05/15 05:34:49;;;;;;;2.50;1.27;;;16.00;99.90;;;;;;4940357;29;20062;-75
2023/05/15 05:37:15;;;;;;;1.70;1.30;;;16.10;99.90;;;;;;4957234;29;20027;-75
2023/05/15 05:39:41;;;;;;;3.42;1.48;;;16.10;99.90;;;;;;4957359;29;20531;-74
2023/05/15 05:42:07;;;;;;;1.40;0.90;;;16.20;99.90;;;;;;4956904;28;20138;-76
2023/05/15 05:44:33;;;;;;;2.63;1.20;;;16.20;99.90;;;;;;4956332;29;20019;-76
2023/05/15 05:46:59;;;;;;;4.53;1.88;;;16.20;99.90;;;;;;4957469;29;20024;-77
2023/05/15 05:49:25;;;;;;;4.05;1.92;;;16.30;99.90;;;;;;4957049;29;20034;-74
2023/05/15 05:51:51;;;;;;;3.47;1.75;;;16.30;99.90;;;;;;4957420;29;20027;-77
2023/05/15 05:54:17;;;;;;;2.38;1.20;;;16.20;99.90;;;;;;4956872;29;20066;-76
2023/05/15 05:56:43;;;;;;;1.30;0.73;;;16.20;99.90;;;;;;4939620;29;20078;-76
2023/05/15 05:59:09;;;;;;;2.78;1.17;;;16.20;99.90;;;;;;4956898;29;20059;-76
2023/05/15 06:01:35;;;;;;;1.60;1.00;;;16.30;99.90;;;;;;4956474;29;20026;-73
2023/05/15 06:04:01;;;;;;;1.50;0.90;;;16.40;99.90;;;;;;4946723;29;20090;-76
2023/05/15 06:06:27;;;;;;;1.85;1.02;;;16.40;99.90;;;;;;4956484;29;20035;-74
2023/05/15 06:08:53;;;;;;;3.22;1.13;;;16.50;99.90;;;;;;4956863;29;20550;-76
2023/05/15 06:11:20;;;;;;;8.18;1.58;;;16.40;99.90;;;;;;4938939;29;20039;-76
2023/05/15 06:13:46;;;;;;;2.92;1.27;;;16.50;99.90;;;;;;4948742;29;20031;-75
2023/05/15 06:16:11;;;;;;;2.03;1.48;;;16.40;99.90;;;;;;4938621;29;20735;-76
2023/05/15 06:18:37;;;;;;;2.92;1.50;;;16.40;99.90;;;;;;4951782;29;20028;-76
2023/05/15 06:21:03;;;;;;;3.03;1.60;;;16.30;99.90;;;;;;4950508;29;20031;-74
2023/05/15 06:23:29;;;;;;;1.88;1.23;;;16.30;99.90;;;;;;4943956;29;20023;-74
2023/05/15 06:25:55;;;;;;;2.35;1.25;;;16.30;99.90;;;;;;4956621;29;20023;-76
2023/05/15 06:28:21;;;;;;;3.25;1.08;;;16.20;99.90;;;;;;4956666;29;20083;-77
2023/05/15 06:30:46;;;;;;;1.30;1.02;;;16.30;99.90;;;;;;4956202;29;20471;-76
2023/05/15 06:33:12;;;;;;;1.52;1.00;;;16.40;99.90;;;;;;4942701;29;20046;-74
2023/05/15 06:35:38;;;;;;;2.40;1.40;;;16.50;99.90;;;;;;4939094;29;20118;-74
2023/05/15 06:38:04;;;;;;;2.47;1.50;;;16.50;99.90;;;;;;4956083;29;20031;-74
2023/05/15 06:40:30;;;;;;;2.35;1.25;;;16.40;99.90;;;;;;4938345;29;20066;-75
2023/05/15 06:42:56;;;;;;;3.50;1.20;;;16.60;99.90;;;;;;4955837;29;20039;-76
2023/05/15 06:45:21;;;;;;;5.05;2.10;;;16.60;99.90;;;;;;4956283;29;20039;-73
2023/05/15 06:47:47;;;;;;;3.70;2.25;;;16.70;99.90;;;;;;4955844;29;20031;-76
2023/05/15 06:50:13;;;;;;;2.53;1.77;;;16.80;99.90;;;;;;4955899;29;20106;-77
2023/05/15 06:52:39;;;;;;;4.03;1.77;;;16.90;99.90;;;;;;4956157;29;20019;-73
2023/05/15 06:55:05;;;;;;;5.57;2.97;;;16.90;99.90;;;;;;4956176;29;20066;-76
2023/05/15 06:57:33;;;;;;;5.53;3.22;;;16.90;99.90;;;;;;4955884;29;20023;-73
2023/05/15 06:59:58;;;;;;;6.22;3.33;;;17.00;99.90;;;;;;4955841;29;20082;-74
2023/05/15 07:02:24;;;;;;;3.63;2.35;;;17.10;99.90;;;;;;4956618;29;20467;-75
2023/05/15 07:04:50;;;;;;;4.57;2.33;;;17.10;99.90;;;;;;4955341;29;20027;-74
2023/05/15 07:07:17;;;;;;;4.43;2.67;;;17.30;99.90;;;;;;4955799;29;20030;-75
2023/05/15 07:09:47;;;;;;;4.80;2.78;;;17.30;99.90;;;;;;4955544;29;20069;-74
2023/05/15 07:12:14;;;;;;;7.15;4.05;;;17.50;99.90;;;;;;4955251;29;20030;-76
2023/05/15 07:14:39;;;;;;;7.50;3.10;;;17.50;99.90;;;;;;4955355;29;20035;-76
2023/05/15 07:17:05;;;;;;;4.28;2.83;;;17.50;99.90;;;;;;4955929;29;20027;-76
2023/05/15 07:19:31;;;;;;;4.82;2.30;;;17.60;99.90;;;;;;4955296;29;20054;-76
2023/05/15 07:21:57;;;;;;;4.53;2.53;;;17.70;99.90;;;;;;4955592;29;20505;-76
2023/05/15 07:24:23;;;;;;;3.70;2.50;;;17.80;99.90;;;;;;4954714;29;20023;-76
2023/05/15 07:26:48;;;;;;;2.38;1.83;;;17.90;99.90;;;;;;4954946;29;20019;-76
2023/05/15 07:29:14;;;;;;;2.78;1.50;;;18.00;99.90;;;;;;4954368;29;20379;-76
2023/05/15 07:31:43;;;;;;;1.65;1.02;;;18.00;99.90;;;;;;4955180;29;20040;-76
2023/05/15 07:34:10;;;;;;;2.55;1.52;;;18.10;99.90;;;;;;4954498;29;20502;-76
2023/05/15 07:36:36;;;;;;;1.75;1.48;;;18.10;99.90;;;;;;4955233;29;20030;-77
2023/05/15 07:39:01;;;;;;;3.40;2.25;;;18.10;99.90;;;;;;4955110;29;20024;-77
2023/05/15 07:41:29;;;;;;;2.53;1.95;;;18.00;99.90;;;;;;4954615;29;20043;-77
2023/05/15 07:43:55;;;;;;;3.72;2.50;;;17.90;99.90;;;;;;4954134;28;20038;-76
2023/05/15 07:46:21;;;;;;;2.40;1.85;;;17.90;99.90;;;;;;4953913;29;20027;-77
2023/05/15 07:48:47;;;;;;;3.17;1.98;;;17.30;99.90;;;;;;4955037;29;20123;-76
2023/05/15 07:51:12;;;;;;;2.60;1.92;;;17.50;99.90;;;;;;4955368;29;20038;-74
2023/05/15 07:53:38;;;;;;;3.53;2.45;;;17.70;99.90;;;;;;4953955;29;20546;-73
2023/05/15 07:56:04;;;;;;;3.58;2.33;;;17.60;99.90;;;;;;4954524;29;20059;-76
2023/05/15 07:58:30;;;;;;;2.92;1.83;;;17.60;99.90;;;;;;4954307;29;20030;-73
2023/05/15 08:00:56;;;;;;;4.57;2.65;;;17.30;99.90;;;;;;4955062;29;20124;-76
2023/05/15 08:03:22;;;;;;;3.95;1.77;;;17.40;99.90;;;;;;4954457;29;20027;-74
2023/05/15 08:05:48;;;;;;;3.53;2.20;;;17.50;99.90;;;;;;4937295;29;20054;-74
2023/05/15 08:08:13;;;;;;;5.13;2.10;;;17.50;99.90;;;;;;4954429;29;20038;-75
2023/05/15 08:10:39;;;;;;;2.85;1.88;;;17.50;99.90;;;;;;4954015;29;20087;-76
2023/05/15 08:13:05;;;;;;;2.75;2.17;;;17.50;99.90;;;;;;4954349;29;20120;-77
2023/05/15 08:15:31;;;;;;;2.08;1.70;;;17.50;99.90;;;;;;4954216;29;20047;-74
2023/05/15 08:17:57;;;;;;;3.17;1.67;;;17.50;99.90;;;;;;4953991;29;20051;-77
2023/05/15 08:20:23;;;;;;;3.08;2.03;;;17.30;99.90;;;;;;4954312;29;20218;-73
2023/05/15 08:22:49;;;;;;;2.45;1.95;;;17.40;99.90;;;;;;4954029;29;20023;-75
2023/05/15 08:25:15;;;;;;;4.22;2.40;;;17.40;99.90;;;;;;4953811;29;20019;-74
2023/05/15 08:27:41;;;;;;;4.82;1.80;;;17.30;99.90;;;;;;4953474;29;20380;-74
2023/05/15 08:30:07;;;;;;;3.70;2.00;;;17.20;99.90;;;;;;4953669;29;20111;-76
2023/05/15 08:32:33;;;;;;;3.22;2.00;;;17.20;99.90;;;;;;4954032;29;20035;-77
2023/05/15 08:34:59;;;;;;;3.97;2.53;;;17.20;99.90;;;;;;4954039;29;20043;-75
2023/05/15 08:37:24;;;;;;;8.68;3.15;;;17.10;99.90;;;;;;4954282;29;20486;-73
2023/05/15 08:39:50;;;;;;;7.97;3.38;;;17.20;99.90;;;;;;4951868;29;20031;-74
2023/05/15 08:42:23;;;;;;;5.47;2.58;;;17.20;99.90;;;;;;4954104;29;20047;-76
2023/05/15 08:44:49;;;;;;;6.53;2.83;;;17.10;99.90;;;;;;4954489;29;20031;-75
2023/05/15 08:47:17;;;;;;;7.90;3.13;;;17.20;99.90;;;;;;4936054;29;20031;-76
2023/05/15 08:49:57;;;;;;;2.97;2.00;;;17.30;99.90;;;;;;4952884;29;20061;-73
2023/05/15 08:52:24;;;;;;;4.07;2.42;;;17.30;99.90;;;;;;4936768;29;20538;-74
2023/05/15 08:54:50;;;;;;;3.13;2.38;;;17.30;99.90;;;;;;4953619;28;20134;-75
2023/05/15 08:57:17;;;;;;;5.47;2.88;;;17.20;99.90;;;;;;4931945;29;20032;-77
2023/05/15 08:59:42;;;;;;;9.60;3.42;;;17.20;99.90;;;;;;4934789;29;20027;-75
2023/05/15 09:02:09;;;;;;;7.90;2.88;;;17.10;99.90;;;;;;4917927;29;20020;-77
2023/05/15 09:04:35;;;;;;;8.25;4.03;;;17.10;99.90;;;;;;4941676;29;20023;-75
2023/05/15 09:07:02;;;;;;;10.43;4.20;;;17.10;99.90;;;;;;4952576;29;20020;-76
2023/05/15 09:09:31;;;;;;;4.47;2.92;;;17.20;99.90;;;;;;4953810;29;20027;-75
2023/05/15 09:11:59;;;;;;;5.25;3.33;;;17.20;99.90;;;;;;4954130;29;20019;-77
2023/05/15 09:14:25;;;;;;;5.55;2.88;;;17.20;99.90;;;;;;4953428;29;20035;-74
2023/05/15 09:16:52;;;;;;;5.78;3.15;;;17.20;99.90;;;;;;4953600;29;20031;-73
2023/05/15 09:19:22;;;;;;;5.28;2.67;;;17.30;99.90;;;;;;4953609;29;20058;-74
2023/05/15 09:21:48;;;;;;;7.68;4.22;;;17.10;99.90;;;;;;4953533;29;20033;-74
2023/05/15 09:24:17;;;;;;;7.70;3.80;;;17.50;99.90;;;;;;4953803;29;20042;-74
2023/05/15 09:27:00;;;;;;;9.60;3.15;;;17.60;99.90;;;;;;4953298;29;20030;-77
2023/05/15 09:29:28;;;;;;;4.97;2.65;;;17.70;99.90;;;;;;4953479;29;20023;-77
2023/05/15 09:31:54;;;;;;;4.82;3.00;;;17.70;99.90;;;;;;4952958;29;20045;-74
2023/05/15 09:34:32;;;;;;;7.20;3.50;;;17.50;99.90;;;;;;4953527;29;20436;-77
2023/05/15 09:37:01;;;;;;;5.97;3.05;;;17.60;99.90;;;;;;4951405;29;20066;-76
2023/05/15 09:39:26;;;;;;;7.15;3.88;;;17.70;99.90;;;;;;4953419;28;20085;-77
2023/05/15 09:41:53;;;;;;;6.68;3.20;;;17.70;99.90;;;;;;4953339;29;20048;-74
2023/05/15 09:44:24;;;;;;;5.15;3.33;;;17.70;99.90;;;;;;4953594;29;20027;-76
2023/05/15 09:46:50;;;;;;;6.03;3.10;;;17.80;99.90;;;;;;4952894;29;20030;-74
2023/05/15 09:49:19;;;;;;;10.13;3.35;;;17.90;99.90;;;;;;4953572;29;20019;-76
2023/05/15 09:51:47;;;;;;;6.40;3.28;;;18.00;99.90;;;;;;4945948;29;20034;-74
2023/05/15 09:54:17;;;;;;;8.30;3.33;;;18.20;99.90;;;;;;4953256;29;20042;-77
2023/05/15 09:56:44;;;;;;;6.38;3.28;;;18.30;99.90;;;;;;4953117;29;20110;-74
2023/05/15 09:59:23;;;;;;;6.40;3.35;;;18.10;99.90;;;;;;4952903;29;20082;-75
2023/05/15 10:01:51;;;;;;;3.80;2.35;;;18.20;99.90;;;;;;4953453;29;20494;-76
2023/05/15 10:04:17;;;;;;;4.38;2.90;;;18.20;99.90;;;;;;4953489;29;20027;-77
2023/05/15 10:06:46;;;;;;;6.80;2.38;;;18.20;99.90;;;;;;4953789;28;20031;-77
2023/05/15 10:09:14;;;;;;;7.43;2.60;;;18.20;99.90;;;;;;4956304;29;20026;-76
2023/05/15 10:11:42;;;;;;;3.05;2.13;;;18.10;99.90;;;;;;4956460;29;20027;-74
2023/05/15 10:14:11;;;;;;;5.93;2.28;;;18.30;99.90;;;;;;4956290;29;20082;-75
2023/05/15 10:16:38;;;;;;;3.92;2.50;;;18.00;99.90;;;;;;4956851;29;20023;-77
2023/05/15 10:19:09;;;;;;;3.63;2.38;;;18.40;99.90;;;;;;4956321;29;20019;-73
2023/05/15 10:21:37;;;;;;;4.55;2.65;;;18.50;99.90;;;;;;4956216;29;20110;-74
2023/05/15 10:24:03;;;;;;;8.43;3.20;;;18.40;99.90;;;;;;4957313;29;20019;-73
2023/05/15 10:26:41;;;;;;;3.53;2.40;;;18.60;99.90;;;;;;4956411;29;20034;-74
2023/05/15 10:29:11;;;;;;;5.53;2.53;;;18.00;99.90;;;;;;4955838;29;20034;-73
2023/05/15 10:31:38;;;;;;;4.57;2.83;;;18.10;99.90;;;;;;4949727;28;20024;-75
2023/05/15 10:34:05;;;;;;;6.40;3.50;;;17.80;99.90;;;;;;4949822;29;20046;-73
2023/05/15 10:36:32;;;;;;;5.63;3.08;;;17.90;99.90;;;;;;4954179;28;20027;-75
2023/05/15 10:39:00;;;;;;;6.13;3.53;;;18.10;99.90;;;;;;4938818;29;20028;-74
2023/05/15 10:41:29;;;;;;;6.65;3.45;;;18.30;99.90;;;;;;4955897;29;20070;-74
2023/05/15 10:43:58;;;;;;;5.93;3.70;;;18.40;99.90;;;;;;4956243;29;20031;-73
2023/05/15 10:46:25;;;;;;;7.53;4.43;;;18.60;99.90;;;;;;4955033;29;20057;-74
2023/05/15 10:48:51;;;;;;;7.68;4.30;;;18.40;99.90;;;;;;4955343;29;20039;-76
2023/05/15 10:51:26;;;;;;;7.22;4.57;;;18.40;99.90;;;;;;4951369;29;20464;-76
2023/05/15 10:53:53;;;;;;;8.88;4.70;;;18.60;99.90;;;;;;4948353;29;20475;-74
2023/05/15 10:56:20;;;;;;;9.32;4.75;;;18.80;99.90;;;;;;4956277;29;20098;-75
2023/05/15 10:58:50;;;;;;;7.18;4.35;;;19.20;99.90;;;;;;4941953;29;20031;-77
2023/05/15 11:01:27;;;;;;;10.70;5.00;;;19.50;99.90;;;;;;4954447;29;20031;-75
2023/05/15 11:04:17;;;;;;;10.27;5.35;;;19.70;99.90;;;;;;4927349;29;20528;-76
2023/05/15 11:06:45;;;;;;;9.45;4.63;;;19.70;99.90;;;;;;4926170;29;20118;-77
2023/05/15 11:09:26;;;;;;;10.85;5.78;;;19.80;99.90;;;;;;4955600;29;20046;-74
2023/05/15 11:11:51;;;;;;;9.32;4.63;;;19.40;99.90;;;;;;4955960;29;20042;-73
2023/05/15 11:14:24;;;;;;;7.22;4.43;;;19.40;99.90;;;;;;4955649;29;20039;-76
2023/05/15 11:16:53;;;;;;;7.40;4.57;;;19.10;99.90;;;;;;4926206;29;20476;-74
2023/05/15 11:19:28;;;;;;;9.55;5.38;;;19.20;99.90;;;;;;4936850;29;20023;-74
2023/05/15 11:21:58;;;;;;;10.13;4.85;;;19.10;99.90;;;;;;4938311;29;20055;-74
2023/05/15 11:24:27;;;;;;;19.08;6.00;;;18.80;99.90;;;;;;4955607;29;20411;-73
2023/05/15 11:27:04;;;;;;;13.30;6.00;;;19.20;99.90;;;;;;4955574;29;20031;-74
2023/05/15 11:29:33;;;;;;;8.13;5.35;;;19.10;99.90;;;;;;4943381;29;20045;-73
2023/05/15 11:31:59;;;;;;;10.52;6.05;;;19.20;99.90;;;;;;4955440;29;20105;-76
2023/05/15 11:34:43;;;;;;;8.07;5.03;;;19.40;99.90;;;;;;4955189;29;20095;-75
2023/05/15 11:37:16;;;;;;;12.25;6.25;;;19.30;99.90;;;;;;4952257;29;20118;-73
2023/05/15 11:39:43;;;;;;;9.23;5.43;;;19.50;99.90;;;;;;4945919;29;20399;-73
2023/05/15 11:42:10;;;;;;;10.20;5.72;;;19.60;99.90;;;;;;4954735;29;20046;-75
2023/05/15 11:44:36;;;;;;;9.55;6.18;;;19.50;99.90;;;;;;4952893;29;20471;-75
2023/05/15 11:47:03;;;;;;;8.98;6.00;;;19.20;99.90;;;;;;4951132;29;20031;-76
2023/05/15 11:49:29;;;;;;;11.23;6.72;;;19.50;99.90;;;;;;4954790;29;20031;-77
2023/05/15 11:51:55;;;;;;;13.05;6.50;;;19.60;99.90;;;;;;4950275;29;20027;-75
2023/05/15 11:54:23;;;;;;;17.13;7.28;;;19.60;99.90;;;;;;4947810;29;20051;-76
2023/05/15 11:56:49;;;;;;;14.45;6.95;;;19.80;99.90;;;;;;4938891;29;20477;-76
2023/05/15 11:59:15;;;;;;;12.73;6.30;;;19.40;99.90;;;;;;4936147;29;20066;-76
2023/05/15 12:01:42;;;;;;;11.57;7.20;;;19.70;99.90;;;;;;4940544;29;20028;-76
2023/05/15 12:04:16;;;;;;;14.15;7.70;;;19.80;99.90;;;;;;4934152;29;20042;-73
2023/05/15 12:06:43;;;;;;;12.43;7.22;;;20.00;99.90;;;;;;4917253;29;20066;-75
2023/05/15 12:09:18;;;;;;;16.33;7.88;;;20.00;99.90;;;;;;4933997;29;20414;-76
2023/05/15 12:11:50;;;;;;;13.25;7.60;;;19.60;99.90;;;;;;4938086;29;20040;-73
2023/05/15 12:14:16;;;;;;;12.10;7.43;;;19.90;99.90;;;;;;4938652;29;20051;-74
2023/05/15 12:16:43;;;;;;;13.27;8.55;;;19.70;99.90;;;;;;4935456;29;20051;-76
2023/05/15 12:19:10;;;;;;;12.82;7.50;;;19.80;99.90;;;;;;4934011;29;20038;-74
2023/05/15 12:21:41;;;;;;;18.40;10.73;;;19.90;99.90;;;;;;4934085;29;20055;-76
2023/05/15 12:24:11;;;;;;;12.60;7.43;;;20.00;99.90;;;;;;4934003;29;20062;-74
2023/05/15 12:26:38;;;;;;;10.95;6.88;;;19.80;99.90;;;;;;4937450;29;20432;-74
2023/05/15 12:29:04;;;;;;;10.77;7.07;;;19.90;99.90;;;;;;4954234;28;20035;-74
2023/05/15 12:31:33;;;;;;;13.65;8.43;;;19.80;99.90;;;;;;4954428;29;20031;-73
2023/05/15 12:33:59;;;;;;;12.60;7.85;;;19.90;99.90;;;;;;4954054;29;20498;-77
2023/05/15 12:36:28;;;;;;;13.18;8.68;;;20.00;99.90;;;;;;4937398;29;20028;-73
2023/05/15 12:38:54;;;;;;;15.50;8.68;;;20.10;99.90;;;;;;4954197;29;20376;-74
2023/05/15 12:41:20;;;;;;;15.77;8.77;;;20.30;99.90;;;;;;4954029;29;20495;-74
2023/05/15 12:43:47;;;;;;;15.20;8.20;;;20.30;99.90;;;;;;4944505;29;20053;-75